Terminal Aerodrome Forecast
Issued by NWS

Home | Current Version | Previous Version | Text Only | Print | Product List | Glossary On
Versions: 1 2 3 4 5 6 7 8 9 10 11 12 13 14 15 16 17
000
FTUS46 KHNX 301152 CCA
TAFMCE
TAF COR
KMCE 301152Z 3012/3112 00000KT 3/4SM BR OVC002
      TEMPO 3012/3016 1/4SM FG OVC001
     FM302000 VRB04KT 3SM BR BKN005
     FM302300 29005KT 4SM HZ SCT005
     FM310400 VRB03KT 1SM BR BKN005
      TEMPO 3104/3106 1/2SM FG VV003
     FM310600 00000KT 1/4SM FG VV001=

USA.gov is the U.S. government's official web portal to all federal, state and local government web resources and services.